sensor_id;sensor_type;location;lat;lon;timestamp;pressure;altitude;pressure_sealevel;temperature;humidity
78855;BME280;68206;59.956;30.234;2023-03-14T00:00:31;98884.69;;;-1.33;80.60
78855;BME280;68206;59.956;30.234;2023-03-14T00:02:59;98887.28;;;-1.33;81.23
78855;BME280;68206;59.956;30.234;2023-03-14T00:05:27;98882.97;;;-1.32;79.90
78855;BME280;68206;59.956;30.234;2023-03-14T00:07:55;98892.47;;;-1.31;79.65
78855;BME280;68206;59.956;30.234;2023-03-14T00:10:23;98848.25;;;-1.30;81.00
78855;BME280;68206;59.956;30.234;2023-03-14T00:12:51;98856.91;;;-1.28;79.95
78855;BME280;68206;59.956;30.234;2023-03-14T00:15:19;98894.97;;;-1.24;80.85
78855;BME280;68206;59.956;30.234;2023-03-14T00:17:49;98838.63;;;-1.22;79.63
78855;BME280;68206;59.956;30.234;2023-03-14T00:20:17;98822.16;;;-1.24;80.98
78855;BME280;68206;59.956;30.234;2023-03-14T00:22:45;98855.88;;;-1.17;80.17
78855;BME280;68206;59.956;30.234;2023-03-14T00:25:13;98811.66;;;-1.16;80.00
78855;BME280;68206;59.956;30.234;2023-03-14T00:27:41;98838.47;;;-1.09;79.68
78855;BME280;68206;59.956;30.234;2023-03-14T00:30:12;98793.44;;;-1.13;79.17
78855;BME280;68206;59.956;30.234;2023-03-14T00:32:40;98799.44;;;-1.11;79.15
78855;BME280;68206;59.956;30.234;2023-03-14T00:35:10;98789.91;;;-1.09;78.13
78855;BME280;68206;59.956;30.234;2023-03-14T00:37:39;98768.22;;;-1.08;77.66
78855;BME280;68206;59.956;30.234;2023-03-14T00:40:08;98782.03;;;-1.06;78.90
78855;BME280;68206;59.956;30.234;2023-03-14T00:42:38;98752.50;;;-1.02;78.59
78855;BME280;68206;59.956;30.234;2023-03-14T00:45:07;98765.47;;;-0.99;78.33
78855;BME280;68206;59.956;30.234;2023-03-14T00:47:35;98738.56;;;-0.98;78.40
78855;BME280;68206;59.956;30.234;2023-03-14T00:50:04;98720.34;;;-0.96;78.92
78855;BME280;68206;59.956;30.234;2023-03-14T00:52:34;98716.81;;;-0.94;78.08
78855;BME280;68206;59.956;30.234;2023-03-14T00:55:02;98722.88;;;-0.92;77.98
78855;BME280;68206;59.956;30.234;2023-03-14T00:57:31;98709.00;;;-0.92;78.75
78855;BME280;68206;59.956;30.234;2023-03-14T00:59:59;98701.19;;;-0.94;78.24
78855;BME280;68206;59.956;30.234;2023-03-14T01:02:28;98706.44;;;-0.95;78.63
78855;BME280;68206;59.956;30.234;2023-03-14T01:04:56;98672.59;;;-0.94;78.87
78855;BME280;68206;59.956;30.234;2023-03-14T01:07:24;98671.66;;;-0.90;78.51
78855;BME280;68206;59.956;30.234;2023-03-14T01:09:53;98695.00;;;-0.85;79.13
78855;BME280;68206;59.956;30.234;2023-03-14T01:12:21;98654.25;;;-0.86;78.74
78855;BME280;68206;59.956;30.234;2023-03-14T01:14:49;98660.22;;;-0.81;78.51
78855;BME280;68206;59.956;30.234;2023-03-14T01:17:18;98631.66;;;-0.83;78.70
78855;BME280;68206;59.956;30.234;2023-03-14T01:19:46;98642.94;;;-0.84;78.86
78855;BME280;68206;59.956;30.234;2023-03-14T01:22:14;98622.09;;;-0.82;78.18
78855;BME280;68206;59.956;30.234;2023-03-14T01:24:42;98610.84;;;-0.83;78.16
78855;BME280;68206;59.956;30.234;2023-03-14T01:27:12;98622.09;;;-0.82;78.48
78855;BME280;68206;59.956;30.234;2023-03-14T01:29:40;98612.56;;;-0.82;78.96
78855;BME280;68206;59.956;30.234;2023-03-14T01:32:09;98602.97;;;-0.81;78.45
78855;BME280;68206;59.956;30.234;2023-03-14T01:34:37;98594.28;;;-0.80;79.10
78855;BME280;68206;59.956;30.234;2023-03-14T01:37:05;98604.69;;;-0.78;79.27
78855;BME280;68206;59.956;30.234;2023-03-14T01:39:36;98582.97;;;-0.76;79.43
78855;BME280;68206;59.956;30.234;2023-03-14T01:42:04;98566.50;;;-0.76;79.18
78855;BME280;68206;59.956;30.234;2023-03-14T01:44:50;98561.22;;;-0.73;79.34
78855;BME280;68206;59.956;30.234;2023-03-14T01:47:18;98540.38;;;-0.72;79.57
78855;BME280;68206;59.956;30.234;2023-03-14T01:49:48;98549.81;;;-0.68;79.72
78855;BME280;68206;59.956;30.234;2023-03-14T01:52:19;98549.78;;;-0.65;79.68
78855;BME280;68206;59.956;30.234;2023-03-14T01:54:51;98546.22;;;-0.62;79.03
78855;BME280;68206;59.956;30.234;2023-03-14T01:57:23;98512.41;;;-0.62;79.35
78855;BME280;68206;59.956;30.234;2023-03-14T01:59:57;98527.84;;;-0.53;78.96
78855;BME280;68206;59.956;30.234;2023-03-14T02:02:30;98504.31;;;-0.49;79.13
78855;BME280;68206;59.956;30.234;2023-03-14T02:04:59;98505.16;;;-0.47;79.23
78855;BME280;68206;59.956;30.234;2023-03-14T02:07:36;98494.66;;;-0.44;79.33
78855;BME280;68206;59.956;30.234;2023-03-14T02:10:14;98491.09;;;-0.38;79.13
78855;BME280;68206;59.956;30.234;2023-03-14T02:12:46;98480.53;;;-0.32;79.10
78855;BME280;68206;59.956;30.234;2023-03-14T02:15:49;98462.19;;;-0.26;79.04
78855;BME280;68206;59.956;30.234;2023-03-14T02:18:38;98454.25;;;-0.21;78.18
78855;BME280;68206;59.956;30.234;2023-03-14T02:21:32;98460.28;;;-0.19;78.59
78855;BME280;68206;59.956;30.234;2023-03-14T02:24:09;98443.75;;;-0.18;78.88
78855;BME280;68206;59.956;30.234;2023-03-14T02:27:03;98437.56;;;-0.13;78.55
78855;BME280;68206;59.956;30.234;2023-03-14T02:29:31;98440.94;;;-0.09;78.93
78855;BME280;68206;59.956;30.234;2023-03-14T02:32:02;98427.78;;;-0.05;78.55
78855;BME280;68206;59.956;30.234;2023-03-14T02:34:31;98435.53;;;0.00;78.85
78855;BME280;68206;59.956;30.234;2023-03-14T02:37:00;98429.34;;;0.04;79.00
78855;BME280;68206;59.956;30.234;2023-03-14T02:39:35;98423.97;;;0.10;78.73
78855;BME280;68206;59.956;30.234;2023-03-14T02:42:06;98428.22;;;0.14;78.59
78855;BME280;68206;59.956;30.234;2023-03-14T02:44:34;98437.72;;;0.17;78.97
78855;BME280;68206;59.956;30.234;2023-03-14T02:47:04;98420.22;;;0.22;79.29
78855;BME280;68206;59.956;30.234;2023-03-14T02:49:32;98424.50;;;0.24;79.09
78855;BME280;68206;59.956;30.234;2023-03-14T02:52:04;98424.34;;;0.30;79.10
78855;BME280;68206;59.956;30.234;2023-03-14T02:54:32;98405.13;;;0.34;79.44
78855;BME280;68206;59.956;30.234;2023-03-14T02:57:00;98423.31;;;0.37;79.33
78855;BME280;68206;59.956;30.234;2023-03-14T02:59:29;98425.81;;;0.40;79.19
78855;BME280;68206;59.956;30.234;2023-03-14T03:02:04;98420.41;;;0.48;79.83
78855;BME280;68206;59.956;30.234;2023-03-14T03:04:32;98421.19;;;0.50;79.80
78855;BME280;68206;59.956;30.234;2023-03-14T03:07:00;98411.47;;;0.57;79.29
78855;BME280;68206;59.956;30.234;2023-03-14T03:09:28;98401.91;;;0.57;79.92
78855;BME280;68206;59.956;30.234;2023-03-14T03:11:56;98393.03;;;0.63;79.71
78855;BME280;68206;59.956;30.234;2023-03-14T03:14:26;98395.59;;;0.66;80.08
78855;BME280;68206;59.956;30.234;2023-03-14T03:17:00;98371.13;;;0.70;80.25
78855;BME280;68206;59.956;30.234;2023-03-14T03:19:28;98388.41;;;0.74;80.14
78855;BME280;68206;59.956;30.234;2023-03-14T03:21:56;98385.72;;;0.77;80.19
78855;BME280;68206;59.956;30.234;2023-03-14T03:24:24;98386.44;;;0.82;80.17
78855;BME280;68206;59.956;30.234;2023-03-14T03:26:54;98375.97;;;0.84;80.28
78855;BME280;68206;59.956;30.234;2023-03-14T03:29:22;98350.59;;;0.89;80.11
78855;BME280;68206;59.956;30.234;2023-03-14T03:31:50;98373.09;;;0.93;80.26
78855;BME280;68206;59.956;30.234;2023-03-14T03:34:20;98355.59;;;0.96;80.46
78855;BME280;68206;59.956;30.234;2023-03-14T03:36:51;98356.31;;;1.01;80.33
78855;BME280;68206;59.956;30.234;2023-03-14T03:39:19;98357.03;;;1.06;80.55
78855;BME280;68206;59.956;30.234;2023-03-14T03:41:48;98359.50;;;1.12;80.18
78855;BME280;68206;59.956;30.234;2023-03-14T03:44:16;98339.31;;;1.17;80.21
78855;BME280;68206;59.956;30.234;2023-03-14T03:46:44;98365.28;;;1.22;80.06
78855;BME280;68206;59.956;30.234;2023-03-14T03:49:12;98351.19;;;1.28;80.49
78855;BME280;68206;59.956;30.234;2023-03-14T03:51:41;98357.97;;;1.33;80.65
78855;BME280;68206;59.956;30.234;2023-03-14T03:54:09;98364.72;;;1.40;80.33
78855;BME280;68206;59.956;30.234;2023-03-14T03:56:38;98368.91;;;1.46;80.32
78855;BME280;68206;59.956;30.234;2023-03-14T03:59:06;98353.84;;;1.54;80.75
78855;BME280;68206;59.956;30.234;2023-03-14T04:01:34;98343.25;;;1.58;80.67
78855;BME280;68206;59.956;30.234;2023-03-14T04:04:02;98346.44;;;1.68;80.48
78855;BME280;68206;59.956;30.234;2023-03-14T04:06:30;98339.19;;;1.76;80.34
78855;BME280;68206;59.956;30.234;2023-03-14T04:09:01;98354.63;;;1.84;80.30
78855;BME280;68206;59.956;30.234;2023-03-14T04:11:35;98352.72;;;1.89;79.94
78855;BME280;68206;59.956;30.234;2023-03-14T04:14:19;98342.06;;;1.95;80.03
78855;BME280;68206;59.956;30.234;2023-03-14T04:16:54;98337.53;;;2.00;80.04
78855;BME280;68206;59.956;30.234;2023-03-14T04:19:22;98339.00;;;2.09;79.81
78855;BME280;68206;59.956;30.234;2023-03-14T04:21:52;98335.38;;;2.13;79.90
78855;BME280;68206;59.956;30.234;2023-03-14T04:24:24;98322.94;;;2.19;79.97
78855;BME280;68206;59.956;30.234;2023-03-14T04:26:55;98322.63;;;2.28;80.02
78855;BME280;68206;59.956;30.234;2023-03-14T04:29:24;98303.25;;;2.34;80.35
78855;BME280;68206;59.956;30.234;2023-03-14T04:31:52;98312.59;;;2.41;79.61
78855;BME280;68206;59.956;30.234;2023-03-14T04:34:20;98311.56;;;2.45;79.66
78855;BME280;68206;59.956;30.234;2023-03-14T04:36:51;98309.78;;;2.47;80.29
78855;BME280;68206;59.956;30.234;2023-03-14T04:39:30;98309.59;;;2.52;79.99
78855;BME280;68206;59.956;30.234;2023-03-14T04:42:07;98304.31;;;2.53;79.91
78855;BME280;68206;59.956;30.234;2023-03-14T04:44:37;98300.66;;;2.57;79.97
78855;BME280;68206;59.956;30.234;2023-03-14T04:47:06;98302.34;;;2.60;79.77
78855;BME280;68206;59.956;30.234;2023-03-14T04:49:34;98299.59;;;2.63;79.69
78855;BME280;68206;59.956;30.234;2023-03-14T04:52:03;98302.97;;;2.66;79.71
78855;BME280;68206;59.956;30.234;2023-03-14T04:54:36;98294.09;;;2.70;80.20
78855;BME280;68206;59.956;30.234;2023-03-14T04:57:04;98286.13;;;2.73;80.37
78855;BME280;68206;59.956;30.234;2023-03-14T04:59:35;98280.81;;;2.75;80.21
78855;BME280;68206;59.956;30.234;2023-03-14T05:02:21;98284.19;;;2.78;80.47
78855;BME280;68206;59.956;30.234;2023-03-14T05:05:09;98277.88;;;2.84;80.38
78855;BME280;68206;59.956;30.234;2023-03-14T05:07:58;98283.75;;;2.91;80.37
78855;BME280;68206;59.956;30.234;2023-03-14T05:10:53;98270.53;;;2.94;80.35
78855;BME280;68206;59.956;30.234;2023-03-14T05:13:32;98271.13;;;3.00;80.13
78855;BME280;68206;59.956;30.234;2023-03-14T05:16:21;98273.59;;;3.05;80.26
78855;BME280;68206;59.956;30.234;2023-03-14T05:19:00;98271.66;;;3.10;80.17
78855;BME280;68206;59.956;30.234;2023-03-14T05:21:47;98267.09;;;3.15;80.72
78855;BME280;68206;59.956;30.234;2023-03-14T05:24:38;98258.88;;;3.24;79.93
78855;BME280;68206;59.956;30.234;2023-03-14T05:27:16;98265.56;;;3.31;80.80
78855;BME280;68206;59.956;30.234;2023-03-14T05:30:11;98255.66;;;3.39;80.50
78855;BME280;68206;59.956;30.234;2023-03-14T05:33:02;98259.53;;;3.51;80.72
78855;BME280;68206;59.956;30.234;2023-03-14T05:35:45;98257.34;;;3.62;79.85
78855;BME280;68206;59.956;30.234;2023-03-14T05:38:30;98257.00;;;3.70;79.93
78855;BME280;68206;59.956;30.234;2023-03-14T05:41:07;98252.31;;;3.78;79.78
78855;BME280;68206;59.956;30.234;2023-03-14T05:43:59;98266.03;;;3.84;79.59
78855;BME280;68206;59.956;30.234;2023-03-14T05:46:36;98259.66;;;3.90;79.49
78855;BME280;68206;59.956;30.234;2023-03-14T05:49:24;98254.81;;;4.01;78.94
78855;BME280;68206;59.956;30.234;2023-03-14T05:52:18;98259.03;;;4.05;79.42
78855;BME280;68206;59.956;30.234;2023-03-14T05:55:03;98250.91;;;4.11;78.75
78855;BME280;68206;59.956;30.234;2023-03-14T05:57:50;98254.19;;;4.16;78.96
78855;BME280;68206;59.956;30.234;2023-03-14T06:00:38;98263.41;;;4.25;78.68
78855;BME280;68206;59.956;30.234;2023-03-14T06:03:33;98253.66;;;4.28;78.79
78855;BME280;68206;59.956;30.234;2023-03-14T06:06:01;98249.94;;;4.32;78.39
78855;BME280;68206;59.956;30.234;2023-03-14T06:08:30;98254.81;;;4.41;78.24
78855;BME280;68206;59.956;30.234;2023-03-14T06:10:58;98242.34;;;4.46;78.32
78855;BME280;68206;59.956;30.234;2023-03-14T06:13:29;98244.69;;;4.53;78.50
78855;BME280;68206;59.956;30.234;2023-03-14T06:15:59;98243.56;;;4.58;78.31
78855;BME280;68206;59.956;30.234;2023-03-14T06:18:27;98254.00;;;4.60;78.06
78855;BME280;68206;59.956;30.234;2023-03-14T06:20:56;98254.63;;;4.65;77.99
78855;BME280;68206;59.956;30.234;2023-03-14T06:23:26;98254.56;;;4.66;78.34
78855;BME280;68206;59.956;30.234;2023-03-14T06:25:56;98243.91;;;4.69;78.62
78855;BME280;68206;59.956;30.234;2023-03-14T06:28:25;98235.69;;;4.77;78.24
78855;BME280;68206;59.956;30.234;2023-03-14T06:31:00;98245.13;;;4.81;78.28
78855;BME280;68206;59.956;30.234;2023-03-14T06:33:34;98246.94;;;4.80;78.14
78855;BME280;68206;59.956;30.234;2023-03-14T06:36:04;98245.06;;;4.82;78.60
78855;BME280;68206;59.956;30.234;2023-03-14T06:38:33;98251.09;;;4.84;78.84
78855;BME280;68206;59.956;30.234;2023-03-14T06:41:03;98259.56;;;4.91;78.16
78855;BME280;68206;59.956;30.234;2023-03-14T06:43:43;98259.56;;;4.91;78.57
78855;BME280;68206;59.956;30.234;2023-03-14T06:46:13;98270.84;;;4.93;78.65
78855;BME280;68206;59.956;30.234;2023-03-14T06:48:42;98256.44;;;5.02;78.51
78855;BME280;68206;59.956;30.234;2023-03-14T06:51:11;98263.44;;;5.01;79.09
78855;BME280;68206;59.956;30.234;2023-03-14T06:53:39;98263.09;;;5.09;78.35
78855;BME280;68206;59.956;30.234;2023-03-14T06:56:08;98268.91;;;5.15;78.09
78855;BME280;68206;59.956;30.234;2023-03-14T06:58:36;98278.28;;;5.21;78.01
78855;BME280;68206;59.956;30.234;2023-03-14T07:01:20;98277.38;;;5.22;78.30
78855;BME280;68206;59.956;30.234;2023-03-14T07:03:49;98287.59;;;5.28;78.34
78855;BME280;68206;59.956;30.234;2023-03-14T07:06:17;98275.16;;;5.32;78.55
78855;BME280;68206;59.956;30.234;2023-03-14T07:08:47;98280.13;;;5.38;78.82
78855;BME280;68206;59.956;30.234;2023-03-14T07:11:17;98279.06;;;5.42;78.82
78855;BME280;68206;59.956;30.234;2023-03-14T07:13:45;98284.09;;;5.46;78.32
78855;BME280;68206;59.956;30.234;2023-03-14T07:16:14;98298.72;;;5.52;78.23
78855;BME280;68206;59.956;30.234;2023-03-14T07:18:44;98302.81;;;5.57;78.42
78855;BME280;68206;59.956;30.234;2023-03-14T07:21:12;98302.47;;;5.65;78.16
78855;BME280;68206;59.956;30.234;2023-03-14T07:23:40;98283.81;;;5.69;78.15
78855;BME280;68206;59.956;30.234;2023-03-14T07:26:08;98299.53;;;5.71;78.23
78855;BME280;68206;59.956;30.234;2023-03-14T07:28:42;98295.06;;;5.73;78.20
78855;BME280;68206;59.956;30.234;2023-03-14T07:31:14;98322.78;;;5.80;77.48
78855;BME280;68206;59.956;30.234;2023-03-14T07:33:44;98324.56;;;5.80;77.93
78855;BME280;68206;59.956;30.234;2023-03-14T07:36:12;98320.91;;;5.82;77.73
78855;BME280;68206;59.956;30.234;2023-03-14T07:38:43;98321.63;;;5.86;77.45
78855;BME280;68206;59.956;30.234;2023-03-14T07:41:30;98322.47;;;5.86;77.57
78855;BME280;68206;59.956;30.234;2023-03-14T07:44:16;98331.03;;;5.91;77.21
78855;BME280;68206;59.956;30.234;2023-03-14T07:46:44;98321.00;;;5.99;76.88
78855;BME280;68206;59.956;30.234;2023-03-14T07:49:14;98314.00;;;5.98;76.82
78855;BME280;68206;59.956;30.234;2023-03-14T07:51:42;98332.19;;;6.03;76.89
78855;BME280;68206;59.956;30.234;2023-03-14T07:54:10;98319.03;;;6.03;77.45
78855;BME280;68206;59.956;30.234;2023-03-14T07:56:38;98324.00;;;6.09;77.22
78855;BME280;68206;59.956;30.234;2023-03-14T07:59:07;98320.28;;;6.13;76.92
78855;BME280;68206;59.956;30.234;2023-03-14T08:01:35;98317.34;;;6.19;76.87
78855;BME280;68206;59.956;30.234;2023-03-14T08:04:03;98326.69;;;6.25;76.84
78855;BME280;68206;59.956;30.234;2023-03-14T08:06:34;98344.19;;;6.26;77.01
78855;BME280;68206;59.956;30.234;2023-03-14T08:09:03;98350.13;;;6.31;76.18
78855;BME280;68206;59.956;30.234;2023-03-14T08:11:31;98329.56;;;6.37;76.68
78855;BME280;68206;59.956;30.234;2023-03-14T08:13:59;98342.41;;;6.43;76.52
78855;BME280;68206;59.956;30.234;2023-03-14T08:16:27;98331.59;;;6.50;76.30
78855;BME280;68206;59.956;30.234;2023-03-14T08:18:57;98337.25;;;6.59;75.92
78855;BME280;68206;59.956;30.234;2023-03-14T08:21:25;98324.75;;;6.63;75.91
78855;BME280;68206;59.956;30.234;2023-03-14T08:23:54;98338.25;;;6.74;75.96
78855;BME280;68206;59.956;30.234;2023-03-14T08:26:23;98340.44;;;6.81;75.37
78855;BME280;68206;59.956;30.234;2023-03-14T08:28:51;98337.50;;;6.87;76.08
78855;BME280;68206;59.956;30.234;2023-03-14T08:31:19;98329.53;;;6.89;75.29
78855;BME280;68206;59.956;30.234;2023-03-14T08:33:47;98331.81;;;6.95;75.53
78855;BME280;68206;59.956;30.234;2023-03-14T08:36:15;98335.91;;;7.01;74.86
78855;BME280;68206;59.956;30.234;2023-03-14T08:38:43;98331.28;;;7.06;75.60
78855;BME280;68206;59.956;30.234;2023-03-14T08:41:13;98339.78;;;7.11;74.44
78855;BME280;68206;59.956;30.234;2023-03-14T08:43:41;98347.69;;;7.11;74.42
78855;BME280;68206;59.956;30.234;2023-03-14T08:46:10;98336.31;;;7.26;74.84
78855;BME280;68206;59.956;30.234;2023-03-14T08:48:38;98328.59;;;7.39;73.56
78855;BME280;68206;59.956;30.234;2023-03-14T08:51:07;98344.00;;;7.46;73.91
78855;BME280;68206;59.956;30.234;2023-03-14T08:53:35;98349.13;;;7.49;73.27
78855;BME280;68206;59.956;30.234;2023-03-14T08:56:03;98355.13;;;7.51;73.79
78855;BME280;68206;59.956;30.234;2023-03-14T08:58:34;98360.06;;;7.57;73.82
78855;BME280;68206;59.956;30.234;2023-03-14T09:01:04;98360.59;;;7.64;72.78
78855;BME280;68206;59.956;30.234;2023-03-14T09:03:32;98360.84;;;7.59;73.32
78855;BME280;68206;59.956;30.234;2023-03-14T09:06:04;98373.09;;;7.60;72.67
78855;BME280;68206;59.956;30.234;2023-03-14T09:08:33;98371.22;;;7.62;72.93
78855;BME280;68206;59.956;30.234;2023-03-14T09:11:07;98382.53;;;7.64;72.75
78855;BME280;68206;59.956;30.234;2023-03-14T09:13:37;98400.69;;;7.70;73.07
78855;BME280;68206;59.956;30.234;2023-03-14T09:16:06;98376.59;;;7.77;72.27
78855;BME280;68206;59.956;30.234;2023-03-14T09:18:35;98361.50;;;7.94;71.95
78855;BME280;68206;59.956;30.234;2023-03-14T09:21:04;98376.75;;;8.05;71.68
78855;BME280;68206;59.956;30.234;2023-03-14T09:23:32;98390.56;;;8.10;70.91
78855;BME280;68206;59.956;30.234;2023-03-14T09:26:00;98382.56;;;8.12;70.64
78855;BME280;68206;59.956;30.234;2023-03-14T09:28:28;98406.03;;;8.16;71.04
78855;BME280;68206;59.956;30.234;2023-03-14T09:31:05;98400.75;;;8.16;70.14
78855;BME280;68206;59.956;30.234;2023-03-14T09:33:33;98400.84;;;8.15;70.43
78855;BME280;68206;59.956;30.234;2023-03-14T09:36:02;98399.06;;;8.15;70.14
78855;BME280;68206;59.956;30.234;2023-03-14T09:38:31;98414.22;;;8.12;70.44
78855;BME280;68206;59.956;30.234;2023-03-14T09:41:01;98400.25;;;8.09;70.90
78855;BME280;68206;59.956;30.234;2023-03-14T09:43:31;98421.38;;;8.09;70.21
78855;BME280;68206;59.956;30.234;2023-03-14T09:46:02;98408.19;;;8.09;71.05
78855;BME280;68206;59.956;30.234;2023-03-14T09:48:33;98421.38;;;8.09;71.07
78855;BME280;68206;59.956;30.234;2023-03-14T09:51:05;98428.38;;;8.10;70.41
78855;BME280;68206;59.956;30.234;2023-03-14T09:53:40;98428.16;;;8.14;70.83
78855;BME280;68206;59.956;30.234;2023-03-14T09:56:12;98433.09;;;8.20;69.93
78855;BME280;68206;59.956;30.234;2023-03-14T09:58:42;98429.53;;;8.21;69.80
78855;BME280;68206;59.956;30.234;2023-03-14T10:01:15;98433.63;;;8.26;70.53
78855;BME280;68206;59.956;30.234;2023-03-14T10:03:47;98440.53;;;8.29;69.84
78855;BME280;68206;59.956;30.234;2023-03-14T10:06:15;98443.72;;;8.35;69.50
78855;BME280;68206;59.956;30.234;2023-03-14T10:08:44;98435.34;;;8.43;69.72
78855;BME280;68206;59.956;30.234;2023-03-14T10:11:15;98437.00;;;8.60;69.31
78855;BME280;68206;59.956;30.234;2023-03-14T10:13:48;98433.75;;;8.70;68.37
78855;BME280;68206;59.956;30.234;2023-03-14T10:16:28;98435.13;;;8.92;67.86
78855;BME280;68206;59.956;30.234;2023-03-14T10:19:02;98437.56;;;8.95;68.07
78855;BME280;68206;59.956;30.234;2023-03-14T10:21:31;98454.25;;;9.11;67.15
78855;BME280;68206;59.956;30.234;2023-03-14T10:24:20;98458.13;;;9.19;66.57
78855;BME280;68206;59.956;30.234;2023-03-14T10:26:49;98433.66;;;9.16;66.06
78855;BME280;68206;59.956;30.234;2023-03-14T10:29:18;98452.19;;;9.16;66.45
78855;BME280;68206;59.956;30.234;2023-03-14T10:31:50;98459.81;;;9.20;66.85
78855;BME280;68206;59.956;30.234;2023-03-14T10:34:21;98450.94;;;9.21;66.23
78855;BME280;68206;59.956;30.234;2023-03-14T10:36:53;98440.84;;;9.28;66.30
78855;BME280;68206;59.956;30.234;2023-03-14T10:39:38;98459.47;;;9.26;66.56
78855;BME280;68206;59.956;30.234;2023-03-14T10:42:19;98460.97;;;9.16;66.05
78855;BME280;68206;59.956;30.234;2023-03-14T10:44:54;98486.91;;;9.10;66.33
78855;BME280;68206;59.956;30.234;2023-03-14T10:47:26;98475.50;;;9.09;66.92
78855;BME280;68206;59.956;30.234;2023-03-14T10:49:55;98467.72;;;9.06;66.73
78855;BME280;68206;59.956;30.234;2023-03-14T10:52:25;98456.97;;;9.09;66.67
78855;BME280;68206;59.956;30.234;2023-03-14T10:55:15;98459.53;;;9.11;66.57
78855;BME280;68206;59.956;30.234;2023-03-14T10:57:43;98480.69;;;9.25;66.03
78855;BME280;68206;59.956;30.234;2023-03-14T11:00:16;98464.22;;;9.36;65.72
78855;BME280;68206;59.956;30.234;2023-03-14T11:03:04;98473.47;;;9.43;65.07
78855;BME280;68206;59.956;30.234;2023-03-14T11:05:40;98464.03;;;9.53;65.20
78855;BME280;68206;59.956;30.234;2023-03-14T11:08:16;98464.59;;;9.58;64.60
78855;BME280;68206;59.956;30.234;2023-03-14T11:10:51;98459.22;;;9.59;65.10
78855;BME280;68206;59.956;30.234;2023-03-14T11:13:25;98476.88;;;9.59;65.30
78855;BME280;68206;59.956;30.234;2023-03-14T11:16:01;98488.97;;;9.63;64.95
78855;BME280;68206;59.956;30.234;2023-03-14T11:18:48;98476.41;;;9.66;64.69
78855;BME280;68206;59.956;30.234;2023-03-14T11:21:23;98489.56;;;9.68;64.51
78855;BME280;68206;59.956;30.234;2023-03-14T11:24:02;98487.38;;;9.60;64.44
78855;BME280;68206;59.956;30.234;2023-03-14T11:26:36;98491.72;;;9.61;64.75
78855;BME280;68206;59.956;30.234;2023-03-14T11:29:15;98497.84;;;9.62;65.24
78855;BME280;68206;59.956;30.234;2023-03-14T11:31:46;98494.56;;;9.58;64.46
78855;BME280;68206;59.956;30.234;2023-03-14T11:34:20;98505.34;;;9.55;64.54
78855;BME280;68206;59.956;30.234;2023-03-14T11:36:52;98509.38;;;9.47;64.67
78855;BME280;68206;59.956;30.234;2023-03-14T11:39:21;98505.09;;;9.44;64.90
78855;BME280;68206;59.956;30.234;2023-03-14T11:41:52;98526.84;;;9.35;65.39
78855;BME280;68206;59.956;30.234;2023-03-14T11:44:24;98511.25;;;9.30;65.17
78855;BME280;68206;59.956;30.234;2023-03-14T11:46:57;98528.06;;;9.29;65.12
78855;BME280;68206;59.956;30.234;2023-03-14T11:49:32;98529.84;;;9.29;64.98
78855;BME280;68206;59.956;30.234;2023-03-14T11:52:10;98538.03;;;9.24;65.59
78855;BME280;68206;59.956;30.234;2023-03-14T11:54:43;98528.22;;;9.26;65.43
78855;BME280;68206;59.956;30.234;2023-03-14T11:57:14;98546.66;;;9.28;65.04
78855;BME280;68206;59.956;30.234;2023-03-14T11:59:48;98546.16;;;9.21;65.60
78855;BME280;68206;59.956;30.234;2023-03-14T12:02:22;98538.63;;;9.29;65.22
78855;BME280;68206;59.956;30.234;2023-03-14T12:05:25;98550.66;;;9.35;65.21
78855;BME280;68206;59.956;30.234;2023-03-14T12:08:21;98549.72;;;9.36;65.25
78855;BME280;68206;59.956;30.234;2023-03-14T12:10:55;98543.94;;;9.44;64.62
78855;BME280;68206;59.956;30.234;2023-03-14T12:13:28;98551.50;;;9.50;64.56
78855;BME280;68206;59.956;30.234;2023-03-14T12:15:58;98537.34;;;9.51;64.37
78855;BME280;68206;59.956;30.234;2023-03-14T12:18:28;98547.84;;;9.52;64.82
78855;BME280;68206;59.956;30.234;2023-03-14T12:21:00;98559.19;;;9.54;64.48
78855;BME280;68206;59.956;30.234;2023-03-14T12:23:36;98566.00;;;9.58;64.50
78855;BME280;68206;59.956;30.234;2023-03-14T12:26:15;98562.34;;;9.61;64.35
78855;BME280;68206;59.956;30.234;2023-03-14T12:28:49;98552.69;;;9.60;64.46
78855;BME280;68206;59.956;30.234;2023-03-14T12:31:36;98564.88;;;9.62;63.97
78855;BME280;68206;59.956;30.234;2023-03-14T12:34:29;98562.06;;;9.65;64.03
78855;BME280;68206;59.956;30.234;2023-03-14T12:37:10;98561.84;;;9.68;64.12
78855;BME280;68206;59.956;30.234;2023-03-14T12:39:47;98563.47;;;9.71;63.95
78855;BME280;68206;59.956;30.234;2023-03-14T12:42:37;98571.41;;;9.71;63.91
78855;BME280;68206;59.956;30.234;2023-03-14T12:45:21;98559.13;;;9.70;63.89
78855;BME280;68206;59.956;30.234;2023-03-14T12:50:42;98589.28;;;9.67;63.80
78855;BME280;68206;59.956;30.234;2023-03-14T12:53:40;98578.09;;;9.62;63.82
78855;BME280;68206;59.956;30.234;2023-03-14T12:56:20;98598.31;;;9.63;64.11
78855;BME280;68206;59.956;30.234;2023-03-14T12:59:02;98595.88;;;9.60;64.63
78855;BME280;68206;59.956;30.234;2023-03-14T13:01:34;98589.53;;;9.63;64.09
78855;BME280;68206;59.956;30.234;2023-03-14T13:04:07;98597.41;;;9.64;63.99
78855;BME280;68206;59.956;30.234;2023-03-14T13:06:49;98592.00;;;9.66;63.91
78855;BME280;68206;59.956;30.234;2023-03-14T13:09:49;98605.63;;;9.60;63.79
78855;BME280;68206;59.956;30.234;2023-03-14T13:12:23;98591.44;;;9.61;63.94
78855;BME280;68206;59.956;30.234;2023-03-14T13:14:59;98595.31;;;9.55;64.16
78855;BME280;68206;59.956;30.234;2023-03-14T13:17:31;98602.28;;;9.56;64.46
78855;BME280;68206;59.956;30.234;2023-03-14T13:20:11;98601.34;;;9.57;63.96
78855;BME280;68206;59.956;30.234;2023-03-14T13:22:46;98595.41;;;9.54;63.72
78855;BME280;68206;59.956;30.234;2023-03-14T13:25:16;98595.47;;;9.52;64.42
78855;BME280;68206;59.956;30.234;2023-03-14T13:27:45;98607.00;;;9.51;64.64
78855;BME280;68206;59.956;30.234;2023-03-14T13:30:21;98618.72;;;9.47;64.71